Time;durP1;ratioP1;P1;durP2;ratioP2;P2;SDS_P1;SDS_P2;PMS_P1;PMS_P2;Temp;Humidity;BMP_temperature;BMP_pressure;BME280_temperature;BME280_humidity;BME280_pressure;Samples;Min_cycle;Max_cycle;Signal;HPM_P1;HPM_P2
2024/01/19 00:00:34;;;;;;;8.33;7.53;;;15.00;52.80;15.80;100511.00;;;;4992346;28;20173;-51
2024/01/19 00:03:00;;;;;;;7.97;7.23;;;14.90;52.80;15.70;100518.00;;;;5008160;28;20549;-44
2024/01/19 00:05:26;;;;;;;7.80;7.10;;;14.90;52.80;15.70;100519.00;;;;4997526;28;20196;-46
2024/01/19 00:07:52;;;;;;;8.63;7.83;;;14.90;52.90;15.70;100522.00;;;;4992579;28;20181;-44
2024/01/19 00:10:17;;;;;;;8.67;7.77;;;14.90;52.80;15.70;100526.00;;;;4993131;28;20185;-44
2024/01/19 00:12:43;;;;;;;8.37;7.57;;;14.80;52.80;15.70;100523.00;;;;4988811;28;20174;-54
2024/01/19 00:15:09;;;;;;;8.57;7.77;;;14.80;52.80;15.60;100527.00;;;;4998004;28;20486;-44
2024/01/19 00:17:36;;;;;;;8.50;7.80;;;14.80;52.80;15.70;100539.00;;;;5012440;28;20272;-44
2024/01/19 00:20:01;;;;;;;8.40;7.60;;;14.80;52.80;15.60;100536.00;;;;4994810;28;20251;-44
2024/01/19 00:22:27;;;;;;;8.67;7.87;;;14.80;52.80;15.60;100538.00;;;;4991839;28;20337;-44
2024/01/19 00:24:53;;;;;;;8.30;7.50;;;14.70;52.60;15.60;100548.00;;;;4991430;28;20188;-44
2024/01/19 00:27:19;;;;;;;9.77;8.47;;;14.70;52.70;15.60;100548.00;;;;4987456;28;20180;-45
2024/01/19 00:29:44;;;;;;;8.47;7.77;;;14.70;52.70;15.50;100548.00;;;;4990972;28;20687;-44
2024/01/19 00:32:10;;;;;;;8.47;7.67;;;14.60;52.30;15.50;100559.00;;;;4990558;28;20176;-43
2024/01/19 00:34:36;;;;;;;9.27;8.37;;;14.70;52.50;15.50;100554.00;;;;4991543;28;20345;-43
2024/01/19 00:37:02;;;;;;;9.10;8.30;;;14.60;52.30;15.50;100566.00;;;;4984571;28;20232;-44
2024/01/19 00:39:27;;;;;;;9.20;8.30;;;14.60;52.30;15.50;100573.00;;;;4977252;28;20205;-44
2024/01/19 00:41:53;;;;;;;8.40;7.70;;;14.60;52.30;15.50;100572.00;;;;4983411;28;20183;-44
2024/01/19 00:44:19;;;;;;;9.83;8.87;;;14.50;52.20;15.40;100574.00;;;;4984241;28;20817;-44
2024/01/19 00:46:45;;;;;;;8.63;7.87;;;14.50;52.10;15.40;100583.00;;;;4990455;28;20177;-44
2024/01/19 00:49:10;;;;;;;9.13;8.20;;;14.50;52.10;15.40;100580.00;;;;4981304;28;20662;-43
2024/01/19 00:51:36;;;;;;;9.10;8.20;;;14.50;52.00;15.40;100586.00;;;;4989593;28;20173;-44
2024/01/19 00:54:03;;;;;;;8.90;8.10;;;14.50;52.10;15.40;100587.00;;;;5005226;28;20173;-43
2024/01/19 00:56:29;;;;;;;8.87;8.07;;;14.50;52.10;15.40;100576.00;;;;5006221;28;20674;-43
2024/01/19 00:58:54;;;;;;;9.07;8.17;;;14.40;52.00;15.40;100595.00;;;;4991286;28;20176;-43
2024/01/19 01:01:20;;;;;;;9.47;8.53;;;14.40;51.90;15.30;100578.00;;;;5005687;28;20554;-44
2024/01/19 01:03:48;;;;;;;9.97;9.03;;;14.40;51.80;15.30;100593.00;;;;4989868;28;20187;-44
2024/01/19 01:06:13;;;;;;;10.40;9.30;;;14.30;51.70;15.30;100601.00;;;;4982499;28;20295;-43
2024/01/19 01:08:39;;;;;;;9.77;8.87;;;14.30;51.70;15.30;100591.00;;;;4986863;28;20176;-44
2024/01/19 01:11:05;;;;;;;9.83;8.87;;;14.30;51.70;15.30;100616.00;;;;4989810;28;20172;-44
2024/01/19 01:13:31;;;;;;;10.07;9.07;;;14.30;51.70;15.20;100615.00;;;;4989712;28;20537;-47
2024/01/19 01:15:57;;;;;;;10.00;9.10;;;14.30;51.70;15.20;100608.00;;;;4989269;28;20199;-45
2024/01/19 01:18:23;;;;;;;10.33;9.33;;;14.30;51.80;15.20;100612.00;;;;4989428;28;20208;-44
2024/01/19 01:20:50;;;;;;;9.90;8.97;;;14.20;51.60;15.20;100606.00;;;;4989454;28;20547;-44
2024/01/19 01:23:16;;;;;;;9.77;8.87;;;14.20;51.50;15.20;100615.00;;;;4995024;28;20169;-49
2024/01/19 01:25:41;;;;;;;10.50;9.50;;;14.20;51.50;15.20;100613.00;;;;4993457;28;20391;-43
2024/01/19 01:28:07;;;;;;;9.87;8.97;;;14.10;51.30;15.10;100624.00;;;;4986339;28;20172;-43
2024/01/19 01:30:33;;;;;;;10.30;9.30;;;14.10;51.40;15.10;100638.00;;;;4987875;28;20176;-43
2024/01/19 01:32:59;;;;;;;10.73;9.63;;;14.10;51.40;15.10;100632.00;;;;4989387;28;20172;-44
2024/01/19 01:35:24;;;;;;;10.10;9.20;;;14.10;51.40;15.10;100635.00;;;;4988944;28;20583;-43
2024/01/19 01:37:50;;;;;;;10.33;9.33;;;14.10;51.50;15.10;100636.00;;;;4989426;28;20204;-44
2024/01/19 01:40:16;;;;;;;10.20;9.20;;;14.10;51.50;15.00;100641.00;;;;4989503;28;20180;-44
2024/01/19 01:42:41;;;;;;;10.37;9.40;;;14.00;51.40;15.00;100646.00;;;;4988048;28;20176;-44
2024/01/19 01:45:08;;;;;;;10.93;9.93;;;14.00;51.40;15.00;100637.00;;;;4983446;28;20509;-43
2024/01/19 01:47:34;;;;;;;10.37;9.37;;;14.00;51.40;15.00;100645.00;;;;4983577;28;20204;-44
2024/01/19 01:50:00;;;;;;;9.73;8.83;;;14.00;51.60;15.00;100644.00;;;;4984929;28;20172;-43
2024/01/19 01:52:26;;;;;;;10.93;9.93;;;13.90;51.50;15.00;100652.00;;;;5004387;28;20198;-43
2024/01/19 01:54:52;;;;;;;10.57;9.57;;;14.00;51.70;14.90;100658.00;;;;5004593;28;20201;-45
2024/01/19 01:57:21;;;;;;;10.07;9.07;;;14.00;51.70;14.90;100651.00;;;;5006789;28;20326;-43
2024/01/19 01:59:48;;;;;;;10.70;9.60;;;13.90;51.70;14.90;100670.00;;;;5004029;28;20175;-43
2024/01/19 02:02:13;;;;;;;10.07;9.17;;;13.90;51.70;14.90;100660.00;;;;5004480;28;20172;-44
2024/01/19 02:04:40;;;;;;;10.40;9.33;;;13.90;51.70;14.90;100657.00;;;;5003423;28;20243;-44
2024/01/19 02:07:05;;;;;;;9.90;8.90;;;13.90;51.70;14.90;100674.00;;;;4988020;28;20188;-44
2024/01/19 02:09:31;;;;;;;9.93;9.03;;;13.90;51.90;14.90;100678.00;;;;4994255;28;20179;-44
2024/01/19 02:11:57;;;;;;;10.53;9.50;;;13.90;51.90;14.80;100693.00;;;;4990116;28;20263;-44
2024/01/19 02:14:23;;;;;;;10.23;9.23;;;13.80;51.90;14.80;100685.00;;;;4988555;28;20177;-44
2024/01/19 02:16:49;;;;;;;10.40;9.30;;;13.80;51.90;14.80;100697.00;;;;4987205;28;20227;-44
2024/01/19 02:19:14;;;;;;;10.40;9.30;;;13.80;51.90;14.80;100688.00;;;;4988635;28;20191;-44
2024/01/19 02:21:40;;;;;;;10.80;9.70;;;13.80;51.90;14.60;100689.00;;;;5003604;28;20168;-44
2024/01/19 02:24:12;;;;;;;10.43;9.33;;;13.70;51.90;14.80;100691.00;;;;4988205;28;20188;-44
2024/01/19 02:26:38;;;;;;;11.20;10.10;;;13.70;51.90;14.70;100685.00;;;;4985196;28;20175;-44
2024/01/19 02:29:04;;;;;;;11.67;10.27;;;13.70;51.80;14.70;100689.00;;;;4988428;28;20187;-43
2024/01/19 02:31:30;;;;;;;12.20;10.90;;;13.70;51.60;14.70;100688.00;;;;5003432;28;20168;-44
2024/01/19 02:33:56;;;;;;;12.73;11.17;;;13.70;51.60;14.70;100698.00;;;;4988207;28;20204;-44
2024/01/19 02:36:22;;;;;;;11.13;9.93;;;13.70;51.70;14.70;100710.00;;;;4996812;28;20854;-49
2024/01/19 02:38:48;;;;;;;11.93;10.47;;;13.70;51.80;14.70;100712.00;;;;4993473;28;20200;-44
2024/01/19 02:41:13;;;;;;;12.23;10.50;;;13.70;51.90;14.60;100715.00;;;;4989376;28;20228;-45
2024/01/19 02:43:39;;;;;;;12.37;10.70;;;13.60;51.80;14.60;100716.00;;;;4996235;28;20276;-44
2024/01/19 02:46:05;;;;;;;12.53;11.10;;;13.60;51.70;14.60;100716.00;;;;4988259;28;20200;-44
2024/01/19 02:48:30;;;;;;;13.00;11.60;;;13.60;51.80;14.60;100717.00;;;;4988388;28;20181;-44
2024/01/19 02:50:56;;;;;;;11.90;10.53;;;13.60;51.70;14.60;100722.00;;;;4988723;28;20176;-44
2024/01/19 02:53:22;;;;;;;12.90;11.30;;;13.50;51.70;14.60;100726.00;;;;4988852;28;20223;-43
2024/01/19 02:55:48;;;;;;;12.67;11.13;;;13.50;51.70;14.50;100724.00;;;;4988404;28;20739;-44
2024/01/19 02:58:13;;;;;;;13.10;11.63;;;13.50;51.80;14.50;100730.00;;;;4988290;28;20208;-44
2024/01/19 03:00:39;;;;;;;12.10;10.80;;;13.50;51.80;14.50;100731.00;;;;4988485;28;20767;-43
2024/01/19 03:03:05;;;;;;;12.67;11.33;;;13.50;51.80;14.50;100722.00;;;;4988286;28;20184;-43
2024/01/19 03:05:32;;;;;;;12.80;11.43;;;13.50;51.80;14.50;100727.00;;;;5002934;28;20282;-44
2024/01/19 03:07:57;;;;;;;14.70;12.37;;;13.50;51.80;14.50;100728.00;;;;4988346;28;20183;-44
2024/01/19 03:10:23;;;;;;;14.33;12.03;;;13.40;51.70;14.50;100734.00;;;;4988217;28;20203;-44
2024/01/19 03:12:49;;;;;;;13.23;11.83;;;13.40;51.70;14.40;100751.00;;;;4988545;28;20183;-44
2024/01/19 03:15:15;;;;;;;14.60;12.03;;;13.40;51.60;14.40;100752.00;;;;4987860;28;20219;-43
2024/01/19 03:17:40;;;;;;;14.73;12.83;;;13.40;51.60;14.40;100742.00;;;;5005579;28;20311;-45
2024/01/19 03:20:06;;;;;;;14.30;12.80;;;13.40;51.60;14.40;100744.00;;;;4991937;28;20183;-45
2024/01/19 03:22:32;;;;;;;15.60;13.07;;;13.30;51.50;14.40;100755.00;;;;4994016;28;20540;-45
2024/01/19 03:24:58;;;;;;;14.27;12.77;;;13.30;51.50;14.40;100691.00;;;;4991719;28;20276;-43
2024/01/19 03:27:24;;;;;;;14.33;12.77;;;13.30;51.50;14.30;100762.00;;;;4988594;28;20179;-43
2024/01/19 03:29:49;;;;;;;14.43;12.93;;;13.30;51.50;14.30;100766.00;;;;4983752;28;20188;-45
2024/01/19 03:32:15;;;;;;;13.97;12.47;;;13.20;51.50;14.30;100748.00;;;;4991503;28;20188;-43
2024/01/19 03:34:41;;;;;;;14.23;12.77;;;13.20;51.30;14.30;100762.00;;;;4991194;28;20610;-44
2024/01/19 03:37:07;;;;;;;14.27;12.77;;;13.20;51.40;14.30;100766.00;;;;4991524;28;20798;-44
2024/01/19 03:39:33;;;;;;;13.63;12.23;;;13.20;51.40;14.30;100760.00;;;;4991509;28;20172;-43
2024/01/19 03:41:59;;;;;;;13.30;11.90;;;13.10;51.40;14.20;100764.00;;;;4995330;28;20251;-46
2024/01/19 03:44:25;;;;;;;13.83;12.17;;;13.10;51.50;14.20;100764.00;;;;4988660;28;20199;-44
2024/01/19 03:46:51;;;;;;;13.60;12.20;;;13.20;51.50;14.20;100764.00;;;;4993176;28;20176;-44
2024/01/19 03:49:17;;;;;;;13.00;11.63;;;13.10;51.30;14.20;100761.00;;;;4992878;28;20231;-43
2024/01/19 03:52:03;;;;;;;13.53;12.17;;;13.10;51.40;14.20;100770.00;;;;4992147;28;20180;-43
2024/01/19 03:54:29;;;;;;;12.37;11.13;;;13.20;51.60;14.20;100758.00;;;;4988817;28;20279;-43
2024/01/19 03:56:57;;;;;;;12.57;11.27;;;13.10;51.50;14.20;100764.00;;;;4991954;28;20388;-44
2024/01/19 03:59:23;;;;;;;12.70;11.40;;;13.10;51.50;14.20;100771.00;;;;5006581;28;20176;-46
2024/01/19 04:01:48;;;;;;;13.50;12.10;;;13.10;51.50;14.20;100778.00;;;;4997469;28;20177;-43
2024/01/19 04:04:14;;;;;;;13.33;11.93;;;13.10;51.50;14.10;100770.00;;;;4992053;28;20667;-43
2024/01/19 04:06:40;;;;;;;12.37;11.07;;;13.10;51.50;14.10;100759.00;;;;4992106;28;20191;-43
2024/01/19 04:09:06;;;;;;;12.53;11.23;;;13.10;51.60;14.10;100767.00;;;;4992023;28;20262;-44
2024/01/19 04:11:36;;;;;;;12.13;10.90;;;13.10;51.70;14.10;100760.00;;;;4991913;28;20207;-43
2024/01/19 04:14:02;;;;;;;12.93;11.57;;;13.10;51.50;14.10;100763.00;;;;4991808;28;20188;-43
2024/01/19 04:16:28;;;;;;;12.90;11.60;;;13.00;51.60;14.10;100759.00;;;;4991912;28;20204;-43
2024/01/19 04:18:54;;;;;;;12.30;11.10;;;13.00;51.60;14.10;100764.00;;;;5007001;28;20212;-43
2024/01/19 04:21:19;;;;;;;13.10;11.80;;;13.00;51.40;14.10;100764.00;;;;4991914;28;20184;-42
2024/01/19 04:23:45;;;;;;;13.70;12.30;;;13.00;51.40;14.00;100767.00;;;;4991891;28;20180;-44
2024/01/19 04:26:11;;;;;;;12.97;11.67;;;13.00;51.50;14.00;100763.00;;;;4989777;28;20243;-43
2024/01/19 04:28:37;;;;;;;13.10;11.67;;;13.00;51.60;13.90;100768.00;;;;5005008;28;20184;-47
2024/01/19 04:31:03;;;;;;;13.30;11.87;;;13.00;52.40;14.00;100775.00;;;;4991488;28;20204;-43
2024/01/19 04:33:29;;;;;;;12.27;10.27;;;13.10;52.40;14.00;100779.00;;;;4991787;28;20215;-43
2024/01/19 04:35:54;;;;;;;12.03;10.80;;;13.00;52.20;14.00;100768.00;;;;4991337;28;20222;-44
2024/01/19 04:38:20;;;;;;;12.07;10.23;;;13.10;52.30;14.00;100785.00;;;;4986202;28;20189;-43
2024/01/19 04:40:46;;;;;;;11.97;10.30;;;13.00;52.50;14.00;100786.00;;;;4983913;28;20195;-43
2024/01/19 04:43:13;;;;;;;10.73;9.70;;;13.00;52.60;14.00;100774.00;;;;4981931;28;20591;-44
2024/01/19 04:45:38;;;;;;;11.33;9.67;;;13.00;52.60;14.00;100788.00;;;;5004453;28;20224;-43
2024/01/19 04:48:04;;;;;;;10.87;9.20;;;13.00;52.70;14.00;100778.00;;;;4992064;28;20238;-44
2024/01/19 04:50:30;;;;;;;10.17;9.17;;;13.00;52.70;14.00;100778.00;;;;4996842;28;20207;-53
2024/01/19 04:52:56;;;;;;;12.20;9.47;;;13.00;52.70;14.00;100786.00;;;;4990673;28;20187;-48
2024/01/19 04:55:21;;;;;;;9.93;8.93;;;13.00;52.80;14.00;100783.00;;;;4990653;28;20207;-43
2024/01/19 04:57:47;;;;;;;9.97;8.97;;;13.00;52.80;14.00;100781.00;;;;4990946;28;20217;-43
2024/01/19 05:00:14;;;;;;;9.37;8.37;;;13.00;53.50;13.90;100785.00;;;;5005892;28;20583;-43
2024/01/19 05:02:39;;;;;;;10.23;7.93;;;13.00;52.90;13.90;100797.00;;;;4990699;28;20191;-43
2024/01/19 05:05:05;;;;;;;10.50;8.60;;;13.00;53.00;13.90;100786.00;;;;4990596;28;20196;-44
2024/01/19 05:07:31;;;;;;;11.10;8.53;;;13.00;53.00;13.90;100797.00;;;;4992379;28;20184;-44
2024/01/19 05:09:57;;;;;;;9.03;8.13;;;13.00;53.00;13.90;100812.00;;;;5010899;28;20207;-44
2024/01/19 05:12:23;;;;;;;9.73;8.13;;;12.90;52.90;13.90;100803.00;;;;4992169;28;20817;-44
2024/01/19 05:14:49;;;;;;;9.30;7.90;;;13.00;53.10;13.90;100805.00;;;;4990352;28;20199;-42
2024/01/19 05:17:15;;;;;;;8.83;7.67;;;13.00;53.10;13.90;100813.00;;;;5005377;28;20223;-43
2024/01/19 05:19:40;;;;;;;8.97;7.10;;;13.00;53.10;13.90;100817.00;;;;4990435;28;20207;-44
2024/01/19 05:22:06;;;;;;;8.97;7.93;;;13.00;53.20;13.90;100817.00;;;;4989990;28;20187;-44
2024/01/19 05:24:32;;;;;;;7.90;7.10;;;12.90;53.30;13.90;100816.00;;;;4981845;28;20217;-44
2024/01/19 05:26:59;;;;;;;9.33;7.83;;;12.90;53.40;13.90;100809.00;;;;4988192;28;20188;-44
2024/01/19 05:29:25;;;;;;;9.07;6.93;;;12.90;53.40;13.90;100815.00;;;;4996052;28;20679;-49
2024/01/19 05:31:50;;;;;;;9.17;7.20;;;12.90;53.50;13.80;100829.00;;;;4990392;28;20177;-43
2024/01/19 05:34:16;;;;;;;7.43;6.70;;;12.90;53.50;13.80;100827.00;;;;4986690;28;20243;-44
2024/01/19 05:36:42;;;;;;;9.50;7.53;;;12.90;53.60;13.90;100824.00;;;;4998056;28;20177;-50
2024/01/19 05:39:08;;;;;;;8.43;6.83;;;12.90;53.50;13.90;100837.00;;;;4993332;28;20687;-50
2024/01/19 05:41:34;;;;;;;8.03;6.67;;;12.90;53.70;13.80;100825.00;;;;4992354;28;20863;-43
2024/01/19 05:44:00;;;;;;;8.57;7.07;;;12.90;53.70;13.80;100830.00;;;;4984212;28;20206;-43
2024/01/19 05:46:26;;;;;;;7.20;6.50;;;12.90;53.70;13.80;100839.00;;;;4990448;28;20583;-43
2024/01/19 05:48:52;;;;;;;7.27;6.50;;;12.90;53.70;13.80;100836.00;;;;4990962;28;20177;-43
2024/01/19 05:51:17;;;;;;;7.30;6.60;;;12.90;53.70;13.80;100850.00;;;;4994163;28;20184;-44
2024/01/19 05:53:43;;;;;;;7.73;6.53;;;12.90;53.70;13.80;100852.00;;;;4990588;28;20192;-43
2024/01/19 05:56:10;;;;;;;6.53;5.87;;;12.90;53.60;13.80;100859.00;;;;4990030;28;20303;-42
2024/01/19 05:58:36;;;;;;;7.63;6.40;;;12.90;53.60;13.80;100859.00;;;;5005504;28;20215;-43
2024/01/19 06:01:05;;;;;;;7.60;6.33;;;12.90;53.80;13.80;100870.00;;;;4989317;28;20671;-43
2024/01/19 06:03:35;;;;;;;7.00;6.23;;;13.00;53.80;13.80;100874.00;;;;4989972;28;20659;-43
2024/01/19 06:06:04;;;;;;;7.43;5.90;;;13.00;53.70;13.90;100870.00;;;;4989506;28;20196;-43
2024/01/19 06:08:30;;;;;;;6.77;6.07;;;13.20;53.80;13.90;100871.00;;;;4989575;28;20191;-44
2024/01/19 06:10:56;;;;;;;6.13;5.53;;;13.20;53.50;14.00;100871.00;;;;4988702;28;20184;-42
2024/01/19 06:13:22;;;;;;;7.63;5.90;;;13.30;53.30;14.00;100871.00;;;;4986175;28;20184;-44
2024/01/19 06:15:48;;;;;;;6.63;5.33;;;13.50;53.50;14.10;100874.00;;;;4989330;28;20561;-44
2024/01/19 06:18:14;;;;;;;6.63;5.93;;;13.60;53.60;14.20;100882.00;;;;5004777;28;20244;-44
2024/01/19 06:20:42;;;;;;;5.97;5.37;;;13.70;53.40;14.30;100888.00;;;;4989269;28;20747;-43
2024/01/19 06:23:09;;;;;;;6.57;5.10;;;13.90;53.30;14.40;100891.00;;;;4989347;28;20233;-44
2024/01/19 06:25:35;;;;;;;6.00;5.40;;;14.10;53.20;14.60;100896.00;;;;4988089;28;20196;-44
2024/01/19 06:28:01;;;;;;;8.87;5.40;;;14.20;52.90;14.70;100897.00;;;;4986120;28;20203;-44
2024/01/19 06:30:27;;;;;;;6.83;5.30;;;14.40;52.80;14.80;100906.00;;;;4989139;28;20626;-43
2024/01/19 06:32:52;;;;;;;5.47;4.97;;;14.50;52.60;14.90;100892.00;;;;4989345;28;20422;-43
2024/01/19 06:35:18;;;;;;;5.33;4.80;;;14.60;52.60;15.00;100907.00;;;;4987870;28;20200;-44
2024/01/19 06:37:44;;;;;;;6.50;5.00;;;14.70;52.50;15.10;100913.00;;;;5004051;28;20204;-44
2024/01/19 06:40:10;;;;;;;5.90;5.07;;;14.80;52.50;15.20;100908.00;;;;4989371;28;20176;-54
2024/01/19 06:42:37;;;;;;;5.47;4.97;;;14.90;52.50;15.30;100900.00;;;;4988350;28;20191;-44
2024/01/19 06:45:03;;;;;;;5.33;4.80;;;15.00;52.60;15.30;100903.00;;;;4982786;28;20203;-43
2024/01/19 06:47:29;;;;;;;4.97;4.47;;;15.00;52.50;15.40;100915.00;;;;4989642;28;20246;-44
2024/01/19 06:49:54;;;;;;;5.17;4.67;;;15.10;52.40;15.50;100921.00;;;;4989539;28;20604;-45
2024/01/19 06:52:20;;;;;;;5.10;4.60;;;15.20;52.40;15.60;100912.00;;;;4991974;28;20227;-43
2024/01/19 06:54:46;;;;;;;5.23;4.50;;;15.20;52.50;15.60;100922.00;;;;4993115;28;20286;-43
2024/01/19 06:57:12;;;;;;;4.83;4.43;;;15.20;52.40;15.70;100928.00;;;;4993262;28;20231;-44
2024/01/19 06:59:37;;;;;;;5.03;4.53;;;15.30;52.50;15.80;100939.00;;;;4993327;28;20184;-44
2024/01/19 07:02:04;;;;;;;4.43;4.03;;;15.30;53.20;15.80;100938.00;;;;4992513;28;20179;-43
2024/01/19 07:04:30;;;;;;;4.73;4.33;;;15.40;52.60;15.80;100939.00;;;;4992803;28;20196;-43
2024/01/19 07:06:55;;;;;;;5.23;4.57;;;15.40;52.70;15.90;100939.00;;;;4994869;28;20181;-45
2024/01/19 07:09:21;;;;;;;4.90;4.40;;;15.40;52.60;15.90;100947.00;;;;4998683;28;20173;-47
2024/01/19 07:11:47;;;;;;;4.70;4.30;;;15.40;52.70;16.00;100949.00;;;;4992761;28;20180;-43
2024/01/19 07:14:13;;;;;;;4.93;4.47;;;15.40;52.80;16.00;100958.00;;;;4990762;28;20211;-44
2024/01/19 07:16:43;;;;;;;4.10;3.80;;;15.50;52.90;16.00;100956.00;;;;4991421;28;20578;-43
2024/01/19 07:19:10;;;;;;;4.23;3.87;;;15.50;52.90;16.10;100958.00;;;;4993016;28;20212;-43
2024/01/19 07:21:39;;;;;;;4.97;4.30;;;15.50;52.80;16.10;100954.00;;;;4992469;28;20191;-44
2024/01/19 07:24:09;;;;;;;4.20;3.80;;;15.50;53.00;16.10;100963.00;;;;4992286;28;21017;-44
2024/01/19 07:26:36;;;;;;;4.60;4.20;;;15.50;53.00;16.10;100975.00;;;;4991400;28;20188;-45
2024/01/19 07:29:06;;;;;;;4.57;4.17;;;15.60;53.10;16.20;100973.00;;;;4997180;28;20235;-44
2024/01/19 07:31:37;;;;;;;4.10;3.70;;;15.60;53.00;16.20;100969.00;;;;4990813;28;20226;-43
2024/01/19 07:34:03;;;;;;;4.27;3.87;;;15.60;53.00;16.20;100978.00;;;;4992361;28;20624;-44
2024/01/19 07:36:29;;;;;;;4.03;3.60;;;15.60;53.10;16.20;100970.00;;;;4992043;28;20207;-44
2024/01/19 07:38:54;;;;;;;3.90;3.60;;;15.60;53.10;16.20;100977.00;;;;4992263;28;20270;-44
2024/01/19 07:41:20;;;;;;;4.27;3.87;;;15.60;53.10;16.30;100981.00;;;;5012676;28;20172;-44
2024/01/19 07:43:46;;;;;;;4.13;3.73;;;15.60;53.10;16.30;100972.00;;;;4985701;28;20176;-44
2024/01/19 07:46:14;;;;;;;4.20;3.80;;;15.60;53.90;16.30;100978.00;;;;4991965;28;20196;-43
2024/01/19 07:48:40;;;;;;;6.37;3.60;;;15.60;53.30;16.30;100988.00;;;;4979337;28;20541;-43
2024/01/19 07:51:06;;;;;;;5.90;3.73;;;15.60;53.50;16.30;100984.00;;;;4981282;28;20199;-44
2024/01/19 07:53:32;;;;;;;4.37;3.83;;;15.60;53.70;16.30;100991.00;;;;4992431;28;20588;-44
2024/01/19 07:55:58;;;;;;;4.80;3.80;;;15.60;54.20;16.40;101011.00;;;;5001715;28;20204;-44
2024/01/19 07:58:24;;;;;;;5.00;3.80;;;15.70;54.70;16.40;101009.00;;;;4975313;28;20209;-44
2024/01/19 08:00:49;;;;;;;5.70;3.60;;;15.70;54.80;16.40;101024.00;;;;4984586;28;20184;-44
2024/01/19 08:03:16;;;;;;;5.23;3.83;;;15.80;54.70;16.50;101030.00;;;;4991331;28;20178;-44
2024/01/19 08:05:41;;;;;;;4.70;4.00;;;15.90;54.50;16.50;101034.00;;;;4990074;28;20261;-44
2024/01/19 08:08:07;;;;;;;3.90;3.60;;;16.10;54.30;16.60;101042.00;;;;4988867;28;20184;-43
2024/01/19 08:10:35;;;;;;;4.00;3.40;;;16.20;54.10;16.70;101030.00;;;;4991867;28;20184;-44
2024/01/19 08:13:01;;;;;;;4.00;3.60;;;16.30;53.80;16.80;101047.00;;;;4991594;28;20184;-45
2024/01/19 08:15:28;;;;;;;3.70;3.40;;;16.50;53.80;16.80;101056.00;;;;4991479;28;20196;-44
2024/01/19 08:17:54;;;;;;;5.27;3.77;;;16.50;53.50;16.90;101058.00;;;;4991241;28;20208;-44
2024/01/19 08:20:20;;;;;;;5.10;3.37;;;16.60;53.20;17.00;101061.00;;;;4991536;28;20208;-44
2024/01/19 08:22:46;;;;;;;3.60;3.30;;;16.70;53.20;17.10;101090.00;;;;4991079;28;20779;-44
2024/01/19 08:25:11;;;;;;;4.00;3.60;;;16.70;53.00;17.10;101085.00;;;;4979430;28;20213;-44
2024/01/19 08:27:41;;;;;;;3.50;3.20;;;16.80;52.90;17.20;101093.00;;;;4982477;28;20182;-43
2024/01/19 08:30:08;;;;;;;3.83;3.43;;;16.90;52.90;17.30;101087.00;;;;4982835;28;20201;-45
2024/01/19 08:32:35;;;;;;;4.77;3.63;;;16.90;53.40;17.30;101091.00;;;;4980728;28;20627;-44
2024/01/19 08:35:08;;;;;;;4.07;3.67;;;17.00;52.80;17.40;101076.00;;;;4989807;28;20291;-44
2024/01/19 08:37:37;;;;;;;3.53;3.23;;;17.00;53.10;17.50;101076.00;;;;4982193;28;20211;-44
2024/01/19 08:40:08;;;;;;;4.07;3.53;;;17.10;53.20;17.50;101085.00;;;;4984603;28;20558;-45
2024/01/19 08:42:34;;;;;;;3.33;3.03;;;17.20;53.20;17.60;101090.00;;;;4982235;28;20584;-44
2024/01/19 08:44:59;;;;;;;3.90;3.20;;;17.20;53.10;17.60;101087.00;;;;4982682;28;20219;-44
2024/01/19 08:47:25;;;;;;;3.80;3.40;;;17.30;53.00;17.70;101096.00;;;;4987173;28;20204;-43
2024/01/19 08:49:51;;;;;;;3.93;3.13;;;17.40;53.20;17.80;101104.00;;;;4989838;28;20184;-44
2024/01/19 08:52:17;;;;;;;3.63;3.33;;;17.40;53.50;17.80;101102.00;;;;4983068;28;20246;-44
2024/01/19 08:54:43;;;;;;;3.40;3.10;;;17.50;53.70;17.90;101112.00;;;;4990132;28;20203;-45
2024/01/19 08:57:08;;;;;;;3.87;3.50;;;17.50;53.70;17.90;101109.00;;;;4988865;28;20606;-44
2024/01/19 08:59:34;;;;;;;3.30;3.00;;;17.50;53.60;17.90;101113.00;;;;4998050;28;20187;-45
2024/01/19 09:02:00;;;;;;;3.90;3.30;;;17.50;53.80;17.90;101126.00;;;;4973948;28;20186;-45
2024/01/19 09:04:25;;;;;;;3.50;3.20;;;17.50;54.10;17.90;101132.00;;;;4974577;28;20191;-44
2024/01/19 09:06:51;;;;;;;3.47;3.17;;;17.40;54.00;17.90;101130.00;;;;5004245;28;20259;-48
2024/01/19 09:09:17;;;;;;;3.40;3.10;;;17.40;53.90;17.90;101131.00;;;;4982239;28;20191;-44
2024/01/19 09:11:43;;;;;;;3.50;3.20;;;17.30;53.80;17.90;101138.00;;;;4985420;28;20693;-45
2024/01/19 09:14:10;;;;;;;3.43;3.03;;;17.30;53.80;17.90;101141.00;;;;4988236;28;20739;-44
2024/01/19 09:16:36;;;;;;;3.30;3.00;;;17.20;53.70;17.90;101148.00;;;;4989355;28;20184;-45
2024/01/19 09:19:02;;;;;;;3.70;3.40;;;17.20;53.70;17.90;101151.00;;;;4993493;28;20204;-45
2024/01/19 09:21:27;;;;;;;3.67;3.37;;;17.20;53.70;17.80;101164.00;;;;5004377;28;20191;-44
2024/01/19 09:23:53;;;;;;;3.60;3.30;;;17.20;53.90;17.80;101162.00;;;;4990222;28;20208;-44
2024/01/19 09:26:20;;;;;;;4.63;3.60;;;17.00;53.80;17.80;101161.00;;;;4982030;28;20257;-43
2024/01/19 09:28:46;;;;;;;4.20;3.27;;;17.00;54.20;17.70;101166.00;;;;4986048;28;20193;-44
2024/01/19 09:31:12;;;;;;;7.17;3.23;;;16.90;54.20;17.70;101168.00;;;;4995987;28;20179;-43
2024/01/19 09:33:38;;;;;;;7.00;3.10;;;16.90;54.60;17.60;101177.00;;;;4989829;28;20188;-44
2024/01/19 09:36:04;;;;;;;3.57;3.27;;;16.90;54.60;17.60;101172.00;;;;4988107;28;20238;-46
2024/01/19 09:38:30;;;;;;;4.60;3.40;;;16.80;54.50;17.60;101177.00;;;;4987939;28;20204;-44
2024/01/19 09:41:28;;;;;;;5.83;3.10;;;16.80;54.50;17.60;101187.00;;;;4986951;28;20182;-44
2024/01/19 09:43:55;;;;;;;3.50;3.20;;;16.80;54.50;17.50;101183.00;;;;4973714;28;20266;-44
2024/01/19 09:46:26;;;;;;;3.20;2.97;;;16.80;54.60;17.50;101191.00;;;;4988060;28;20591;-44
2024/01/19 09:49:34;;;;;;;5.30;3.00;;;16.70;54.40;17.50;101198.00;;;;4978504;28;20183;-45
2024/01/19 09:52:27;;;;;;;3.57;3.27;;;16.70;54.50;17.50;101209.00;;;;5004412;28;20184;-43
2024/01/19 09:54:54;;;;;;;3.83;3.20;;;16.70;54.50;17.40;101209.00;;;;4978574;28;20213;-44
2024/01/19 09:57:19;;;;;;;3.60;3.30;;;16.70;54.60;17.40;101221.00;;;;5002661;28;20225;-44
2024/01/19 09:59:45;;;;;;;4.90;3.30;;;16.70;54.60;17.40;101223.00;;;;5003298;28;20188;-43
2024/01/19 10:02:12;;;;;;;3.47;3.17;;;16.60;54.40;17.40;101228.00;;;;4987292;28;20210;-44
2024/01/19 10:04:37;;;;;;;5.43;3.43;;;16.60;54.40;17.40;101239.00;;;;5003284;28;20693;-45
2024/01/19 10:07:03;;;;;;;3.40;3.10;;;16.60;54.40;17.40;101245.00;;;;5003134;28;20177;-44
2024/01/19 10:09:29;;;;;;;3.57;3.17;;;16.60;54.40;17.40;101239.00;;;;4988184;28;20172;-43
2024/01/19 10:11:55;;;;;;;4.20;3.20;;;16.70;54.50;17.40;101241.00;;;;5003097;28;20182;-43
2024/01/19 10:14:21;;;;;;;3.53;3.23;;;16.60;54.40;17.40;101242.00;;;;4987929;28;20177;-44
2024/01/19 10:16:50;;;;;;;3.70;3.40;;;16.60;54.40;17.40;101242.00;;;;4987766;28;20733;-44
2024/01/19 10:19:16;;;;;;;3.37;3.00;;;16.60;54.30;17.40;101248.00;;;;4984324;28;20233;-44
2024/01/19 10:21:43;;;;;;;3.50;3.20;;;16.60;54.30;17.40;101254.00;;;;4987669;28;20264;-43
2024/01/19 10:24:11;;;;;;;3.50;3.20;;;16.60;54.30;17.40;101260.00;;;;4987120;28;20178;-44
2024/01/19 10:26:37;;;;;;;3.50;3.20;;;16.60;54.90;17.40;101252.00;;;;4982623;28;20658;-44
2024/01/19 10:29:14;;;;;;;3.73;3.40;;;16.60;54.30;17.40;101258.00;;;;4978281;28;20270;-44
2024/01/19 10:31:41;;;;;;;3.23;2.97;;;16.60;54.30;17.30;101266.00;;;;4993035;28;20258;-43
2024/01/19 10:34:22;;;;;;;3.50;3.20;;;16.70;54.30;17.30;101270.00;;;;4986607;28;20190;-44
2024/01/19 10:36:49;;;;;;;3.50;3.20;;;16.60;54.20;17.30;101280.00;;;;4987633;28;20265;-44
2024/01/19 10:39:31;;;;;;;3.63;3.33;;;16.60;54.20;17.10;101277.00;;;;4988626;28;20723;-44